sensor_id;sensor_type;location;lat;lon;timestamp;temperature;humidity
13561;DHT22;6852;51.686;5.314;2023-02-22T00:00:22;7.00;99.90
13561;DHT22;6852;51.686;5.314;2023-02-22T00:02:55;7.00;99.90
13561;DHT22;6852;51.686;5.314;2023-02-22T00:05:26;7.20;99.90
13561;DHT22;6852;51.686;5.314;2023-02-22T00:07:54;7.20;99.90
13561;DHT22;6852;51.686;5.314;2023-02-22T00:10:24;7.10;99.90
13561;DHT22;6852;51.686;5.314;2023-02-22T00:12:53;6.80;99.90
13561;DHT22;6852;51.686;5.314;2023-02-22T00:15:22;6.80;99.90
13561;DHT22;6852;51.686;5.314;2023-02-22T00:17:53;6.90;99.90
13561;DHT22;6852;51.686;5.314;2023-02-22T00:20:20;6.90;99.90
13561;DHT22;6852;51.686;5.314;2023-02-22T00:22:50;6.90;99.90
13561;DHT22;6852;51.686;5.314;2023-02-22T00:25:19;6.90;99.90
13561;DHT22;6852;51.686;5.314;2023-02-22T00:27:47;7.00;99.90
13561;DHT22;6852;51.686;5.314;2023-02-22T00:30:18;7.00;99.90
13561;DHT22;6852;51.686;5.314;2023-02-22T00:32:45;7.00;99.90
13561;DHT22;6852;51.686;5.314;2023-02-22T00:35:14;7.00;99.90
13561;DHT22;6852;51.686;5.314;2023-02-22T00:37:42;6.70;99.90
13561;DHT22;6852;51.686;5.314;2023-02-22T00:40:10;6.70;99.90
13561;DHT22;6852;51.686;5.314;2023-02-22T00:42:37;6.80;99.90
13561;DHT22;6852;51.686;5.314;2023-02-22T00:45:04;6.70;99.90
13561;DHT22;6852;51.686;5.314;2023-02-22T00:47:32;6.80;99.90
13561;DHT22;6852;51.686;5.314;2023-02-22T00:49:59;6.80;99.90
13561;DHT22;6852;51.686;5.314;2023-02-22T00:52:26;6.80;99.90
13561;DHT22;6852;51.686;5.314;2023-02-22T00:54:54;6.60;99.90
13561;DHT22;6852;51.686;5.314;2023-02-22T00:57:22;6.70;99.90
13561;DHT22;6852;51.686;5.314;2023-02-22T00:59:50;6.50;99.90
13561;DHT22;6852;51.686;5.314;2023-02-22T01:02:16;6.40;99.90
13561;DHT22;6852;51.686;5.314;2023-02-22T01:04:43;6.30;99.90
13561;DHT22;6852;51.686;5.314;2023-02-22T01:07:10;6.40;99.90
13561;DHT22;6852;51.686;5.314;2023-02-22T01:09:37;6.50;99.90
13561;DHT22;6852;51.686;5.314;2023-02-22T01:12:05;6.60;99.90
13561;DHT22;6852;51.686;5.314;2023-02-22T01:14:33;6.50;99.90
13561;DHT22;6852;51.686;5.314;2023-02-22T01:17:00;6.50;99.90
13561;DHT22;6852;51.686;5.314;2023-02-22T01:19:27;6.60;99.90
13561;DHT22;6852;51.686;5.314;2023-02-22T01:21:53;6.70;99.90
13561;DHT22;6852;51.686;5.314;2023-02-22T01:24:20;6.80;99.90
13561;DHT22;6852;51.686;5.314;2023-02-22T01:26:51;6.30;99.90
13561;DHT22;6852;51.686;5.314;2023-02-22T01:29:19;6.50;99.90
13561;DHT22;6852;51.686;5.314;2023-02-22T01:31:52;6.50;99.90
13561;DHT22;6852;51.686;5.314;2023-02-22T01:34:21;6.60;99.90
13561;DHT22;6852;51.686;5.314;2023-02-22T01:36:48;6.70;99.90
13561;DHT22;6852;51.686;5.314;2023-02-22T01:39:16;6.80;99.90
13561;DHT22;6852;51.686;5.314;2023-02-22T01:41:46;6.80;99.90
13561;DHT22;6852;51.686;5.314;2023-02-22T01:44:34;6.70;99.90
13561;DHT22;6852;51.686;5.314;2023-02-22T01:47:03;6.50;99.90
13561;DHT22;6852;51.686;5.314;2023-02-22T01:49:40;6.50;99.90
13561;DHT22;6852;51.686;5.314;2023-02-22T01:52:13;6.50;99.90
13561;DHT22;6852;51.686;5.314;2023-02-22T01:54:47;6.30;99.90
13561;DHT22;6852;51.686;5.314;2023-02-22T01:57:20;6.00;99.90
13561;DHT22;6852;51.686;5.314;2023-02-22T01:59:51;5.90;99.90
13561;DHT22;6852;51.686;5.314;2023-02-22T02:02:19;5.90;99.90
13561;DHT22;6852;51.686;5.314;2023-02-22T02:04:48;5.80;99.90
13561;DHT22;6852;51.686;5.314;2023-02-22T02:07:17;5.90;99.90
13561;DHT22;6852;51.686;5.314;2023-02-22T02:09:53;6.10;99.90
13561;DHT22;6852;51.686;5.314;2023-02-22T02:12:22;6.20;99.90
13561;DHT22;6852;51.686;5.314;2023-02-22T02:14:49;6.30;99.90
13561;DHT22;6852;51.686;5.314;2023-02-22T02:17:19;6.30;99.90
13561;DHT22;6852;51.686;5.314;2023-02-22T02:20:13;6.30;99.90
13561;DHT22;6852;51.686;5.314;2023-02-22T02:26:09;6.30;99.90
13561;DHT22;6852;51.686;5.314;2023-02-22T02:31:22;6.10;99.90
13561;DHT22;6852;51.686;5.314;2023-02-22T02:40:07;6.20;99.90
13561;DHT22;6852;51.686;5.314;2023-02-22T02:42:50;6.20;99.90
13561;DHT22;6852;51.686;5.314;2023-02-22T02:45:46;6.10;99.90
13561;DHT22;6852;51.686;5.314;2023-02-22T02:48:11;6.00;99.90
13561;DHT22;6852;51.686;5.314;2023-02-22T02:50:44;5.80;99.90
13561;DHT22;6852;51.686;5.314;2023-02-22T02:53:15;5.90;99.90
13561;DHT22;6852;51.686;5.314;2023-02-22T02:55:43;6.00;99.90
13561;DHT22;6852;51.686;5.314;2023-02-22T02:58:19;6.00;99.90
13561;DHT22;6852;51.686;5.314;2023-02-22T03:00:50;6.20;99.90
13561;DHT22;6852;51.686;5.314;2023-02-22T03:06:35;5.90;99.90
13561;DHT22;6852;51.686;5.314;2023-02-22T03:09:10;5.80;99.90
13561;DHT22;6852;51.686;5.314;2023-02-22T03:11:54;6.00;99.90
13561;DHT22;6852;51.686;5.314;2023-02-22T03:14:40;5.80;99.90
13561;DHT22;6852;51.686;5.314;2023-02-22T03:17:22;5.70;99.90
13561;DHT22;6852;51.686;5.314;2023-02-22T03:20:03;5.90;99.90
13561;DHT22;6852;51.686;5.314;2023-02-22T03:22:58;6.00;99.90
13561;DHT22;6852;51.686;5.314;2023-02-22T03:25:39;6.00;99.90
13561;DHT22;6852;51.686;5.314;2023-02-22T03:28:10;5.70;99.90
13561;DHT22;6852;51.686;5.314;2023-02-22T03:30:49;5.80;99.90
13561;DHT22;6852;51.686;5.314;2023-02-22T03:33:26;5.90;99.90
13561;DHT22;6852;51.686;5.314;2023-02-22T03:36:12;5.90;99.90
13561;DHT22;6852;51.686;5.314;2023-02-22T03:38:41;5.80;99.90
13561;DHT22;6852;51.686;5.314;2023-02-22T03:41:10;5.90;99.90
13561;DHT22;6852;51.686;5.314;2023-02-22T03:43:45;5.90;99.90
13561;DHT22;6852;51.686;5.314;2023-02-22T03:46:14;6.00;99.90
13561;DHT22;6852;51.686;5.314;2023-02-22T03:48:46;5.90;99.90
13561;DHT22;6852;51.686;5.314;2023-02-22T03:51:14;5.90;99.90
13561;DHT22;6852;51.686;5.314;2023-02-22T03:53:43;5.90;99.90
13561;DHT22;6852;51.686;5.314;2023-02-22T03:56:20;5.90;99.90
13561;DHT22;6852;51.686;5.314;2023-02-22T03:58:48;5.80;99.90
13561;DHT22;6852;51.686;5.314;2023-02-22T04:01:15;5.90;99.90
13561;DHT22;6852;51.686;5.314;2023-02-22T04:03:43;6.00;99.90
13561;DHT22;6852;51.686;5.314;2023-02-22T04:06:10;5.90;99.90
13561;DHT22;6852;51.686;5.314;2023-02-22T04:08:37;6.10;99.90
13561;DHT22;6852;51.686;5.314;2023-02-22T04:11:04;6.10;99.90
13561;DHT22;6852;51.686;5.314;2023-02-22T04:13:31;6.00;99.90
13561;DHT22;6852;51.686;5.314;2023-02-22T04:15:57;6.10;99.90
13561;DHT22;6852;51.686;5.314;2023-02-22T04:18:24;6.10;99.90
13561;DHT22;6852;51.686;5.314;2023-02-22T04:20:51;6.20;99.90
13561;DHT22;6852;51.686;5.314;2023-02-22T04:23:18;6.20;99.90
13561;DHT22;6852;51.686;5.314;2023-02-22T04:25:44;6.10;99.90
13561;DHT22;6852;51.686;5.314;2023-02-22T04:28:11;6.10;99.90
13561;DHT22;6852;51.686;5.314;2023-02-22T04:30:38;6.10;99.90
13561;DHT22;6852;51.686;5.314;2023-02-22T04:33:05;6.10;99.90
13561;DHT22;6852;51.686;5.314;2023-02-22T04:35:32;6.00;99.90
13561;DHT22;6852;51.686;5.314;2023-02-22T04:38:01;6.00;99.90
13561;DHT22;6852;51.686;5.314;2023-02-22T04:40:30;5.90;99.90
13561;DHT22;6852;51.686;5.314;2023-02-22T04:42:57;5.80;99.90
13561;DHT22;6852;51.686;5.314;2023-02-22T04:45:26;5.90;99.90
13561;DHT22;6852;51.686;5.314;2023-02-22T04:47:53;5.90;99.90
13561;DHT22;6852;51.686;5.314;2023-02-22T04:50:19;5.90;99.90
13561;DHT22;6852;51.686;5.314;2023-02-22T04:52:46;5.80;99.90
13561;DHT22;6852;51.686;5.314;2023-02-22T04:55:13;5.90;99.90
13561;DHT22;6852;51.686;5.314;2023-02-22T04:57:40;5.80;99.90
13561;DHT22;6852;51.686;5.314;2023-02-22T05:00:07;5.80;99.90
13561;DHT22;6852;51.686;5.314;2023-02-22T05:02:38;5.90;99.90
13561;DHT22;6852;51.686;5.314;2023-02-22T05:05:05;5.80;99.90
13561;DHT22;6852;51.686;5.314;2023-02-22T05:07:32;5.90;99.90
13561;DHT22;6852;51.686;5.314;2023-02-22T05:09:59;5.80;99.90
13561;DHT22;6852;51.686;5.314;2023-02-22T05:12:28;5.80;99.90
13561;DHT22;6852;51.686;5.314;2023-02-22T05:14:55;5.80;99.90
13561;DHT22;6852;51.686;5.314;2023-02-22T05:17:22;5.80;99.90
13561;DHT22;6852;51.686;5.314;2023-02-22T05:19:49;5.80;99.90
13561;DHT22;6852;51.686;5.314;2023-02-22T05:22:15;5.80;99.90
13561;DHT22;6852;51.686;5.314;2023-02-22T05:24:43;5.80;99.90
13561;DHT22;6852;51.686;5.314;2023-02-22T05:27:09;5.70;99.90
13561;DHT22;6852;51.686;5.314;2023-02-22T05:29:37;5.60;99.90
13561;DHT22;6852;51.686;5.314;2023-02-22T05:32:04;5.70;99.90
13561;DHT22;6852;51.686;5.314;2023-02-22T05:34:32;5.70;99.90
13561;DHT22;6852;51.686;5.314;2023-02-22T05:36:59;5.80;99.90
13561;DHT22;6852;51.686;5.314;2023-02-22T05:39:25;5.70;99.90
13561;DHT22;6852;51.686;5.314;2023-02-22T05:41:52;5.80;99.90
13561;DHT22;6852;51.686;5.314;2023-02-22T05:44:19;5.90;99.90
13561;DHT22;6852;51.686;5.314;2023-02-22T05:46:46;6.00;99.90
13561;DHT22;6852;51.686;5.314;2023-02-22T05:49:13;5.90;99.90
13561;DHT22;6852;51.686;5.314;2023-02-22T05:51:40;5.90;99.90
13561;DHT22;6852;51.686;5.314;2023-02-22T05:54:07;5.90;99.90
13561;DHT22;6852;51.686;5.314;2023-02-22T05:56:34;5.80;99.90
13561;DHT22;6852;51.686;5.314;2023-02-22T05:59:02;5.80;99.90
13561;DHT22;6852;51.686;5.314;2023-02-22T06:01:29;5.80;99.90
13561;DHT22;6852;51.686;5.314;2023-02-22T06:03:55;5.70;99.90
13561;DHT22;6852;51.686;5.314;2023-02-22T06:06:22;5.70;99.90
13561;DHT22;6852;51.686;5.314;2023-02-22T06:08:49;5.60;99.90
13561;DHT22;6852;51.686;5.314;2023-02-22T06:11:16;5.60;99.90
13561;DHT22;6852;51.686;5.314;2023-02-22T06:13:49;5.60;99.90
13561;DHT22;6852;51.686;5.314;2023-02-22T06:16:17;5.70;99.90
13561;DHT22;6852;51.686;5.314;2023-02-22T06:18:44;5.70;99.90
13561;DHT22;6852;51.686;5.314;2023-02-22T06:21:11;5.70;99.90
13561;DHT22;6852;51.686;5.314;2023-02-22T06:23:38;5.70;99.90
13561;DHT22;6852;51.686;5.314;2023-02-22T06:26:05;5.70;99.90
13561;DHT22;6852;51.686;5.314;2023-02-22T06:28:32;5.70;99.90
13561;DHT22;6852;51.686;5.314;2023-02-22T06:30:59;5.70;99.90
13561;DHT22;6852;51.686;5.314;2023-02-22T06:33:25;5.60;99.90
13561;DHT22;6852;51.686;5.314;2023-02-22T06:35:52;5.60;99.90
13561;DHT22;6852;51.686;5.314;2023-02-22T06:38:23;5.70;99.90
13561;DHT22;6852;51.686;5.314;2023-02-22T06:40:50;5.60;99.90
13561;DHT22;6852;51.686;5.314;2023-02-22T06:43:17;5.70;99.90
13561;DHT22;6852;51.686;5.314;2023-02-22T06:45:44;5.80;99.90
13561;DHT22;6852;51.686;5.314;2023-02-22T06:48:11;5.80;99.90
13561;DHT22;6852;51.686;5.314;2023-02-22T06:50:38;5.70;99.90
13561;DHT22;6852;51.686;5.314;2023-02-22T06:53:05;5.70;99.90
13561;DHT22;6852;51.686;5.314;2023-02-22T06:55:33;5.70;99.90
13561;DHT22;6852;51.686;5.314;2023-02-22T06:58:01;5.70;99.90
13561;DHT22;6852;51.686;5.314;2023-02-22T07:00:30;5.70;99.90
13561;DHT22;6852;51.686;5.314;2023-02-22T07:02:58;5.70;99.90
13561;DHT22;6852;51.686;5.314;2023-02-22T07:05:26;5.80;99.90
13561;DHT22;6852;51.686;5.314;2023-02-22T07:07:59;5.80;99.90
13561;DHT22;6852;51.686;5.314;2023-02-22T07:10:28;5.90;99.90
13561;DHT22;6852;51.686;5.314;2023-02-22T07:12:56;5.90;99.90
13561;DHT22;6852;51.686;5.314;2023-02-22T07:15:24;5.90;99.90
13561;DHT22;6852;51.686;5.314;2023-02-22T07:17:52;5.80;99.90
13561;DHT22;6852;51.686;5.314;2023-02-22T07:20:19;5.90;99.90
13561;DHT22;6852;51.686;5.314;2023-02-22T07:22:47;5.90;99.90
13561;DHT22;6852;51.686;5.314;2023-02-22T07:25:15;5.90;99.90
13561;DHT22;6852;51.686;5.314;2023-02-22T07:27:42;5.90;99.90
13561;DHT22;6852;51.686;5.314;2023-02-22T07:30:30;5.90;99.90
13561;DHT22;6852;51.686;5.314;2023-02-22T07:32:59;6.00;99.90
13561;DHT22;6852;51.686;5.314;2023-02-22T07:35:31;6.00;99.90
13561;DHT22;6852;51.686;5.314;2023-02-22T07:37:58;6.10;99.90
13561;DHT22;6852;51.686;5.314;2023-02-22T07:40:26;6.20;99.90
13561;DHT22;6852;51.686;5.314;2023-02-22T07:43:01;6.10;99.90
13561;DHT22;6852;51.686;5.314;2023-02-22T07:45:33;6.10;99.90
13561;DHT22;6852;51.686;5.314;2023-02-22T07:48:02;6.20;99.90
13561;DHT22;6852;51.686;5.314;2023-02-22T07:50:31;6.30;99.90
13561;DHT22;6852;51.686;5.314;2023-02-22T07:53:03;6.30;99.90
13561;DHT22;6852;51.686;5.314;2023-02-22T07:55:31;6.40;99.90
13561;DHT22;6852;51.686;5.314;2023-02-22T07:58:01;6.10;99.90
13561;DHT22;6852;51.686;5.314;2023-02-22T08:00:34;6.20;99.90
13561;DHT22;6852;51.686;5.314;2023-02-22T08:03:04;6.30;99.90
13561;DHT22;6852;51.686;5.314;2023-02-22T08:05:32;6.40;99.90
13561;DHT22;6852;51.686;5.314;2023-02-22T08:07:59;6.40;99.90
13561;DHT22;6852;51.686;5.314;2023-02-22T08:10:26;6.30;99.90
13561;DHT22;6852;51.686;5.314;2023-02-22T08:12:54;6.30;99.90
13561;DHT22;6852;51.686;5.314;2023-02-22T08:17:50;6.30;99.90
13561;DHT22;6852;51.686;5.314;2023-02-22T08:20:17;6.40;99.90
13561;DHT22;6852;51.686;5.314;2023-02-22T08:22:45;6.50;99.90
13561;DHT22;6852;51.686;5.314;2023-02-22T08:25:13;6.40;99.90
13561;DHT22;6852;51.686;5.314;2023-02-22T08:27:41;6.30;99.90
13561;DHT22;6852;51.686;5.314;2023-02-22T08:30:21;6.30;99.90
13561;DHT22;6852;51.686;5.314;2023-02-22T08:32:49;6.40;99.90
13561;DHT22;6852;51.686;5.314;2023-02-22T08:35:17;6.50;99.90
13561;DHT22;6852;51.686;5.314;2023-02-22T08:37:47;6.50;99.90
13561;DHT22;6852;51.686;5.314;2023-02-22T08:40:16;6.70;99.90
13561;DHT22;6852;51.686;5.314;2023-02-22T08:42:43;6.70;99.90
13561;DHT22;6852;51.686;5.314;2023-02-22T08:45:11;6.80;99.90
13561;DHT22;6852;51.686;5.314;2023-02-22T08:47:39;6.80;99.90
13561;DHT22;6852;51.686;5.314;2023-02-22T08:50:07;6.80;99.90
13561;DHT22;6852;51.686;5.314;2023-02-22T08:52:34;6.90;99.90
13561;DHT22;6852;51.686;5.314;2023-02-22T08:55:01;6.90;99.90
13561;DHT22;6852;51.686;5.314;2023-02-22T08:57:28;6.80;99.90
13561;DHT22;6852;51.686;5.314;2023-02-22T08:59:55;6.80;99.90
13561;DHT22;6852;51.686;5.314;2023-02-22T09:02:21;6.80;99.90
13561;DHT22;6852;51.686;5.314;2023-02-22T09:04:48;6.90;99.90
13561;DHT22;6852;51.686;5.314;2023-02-22T09:07:16;6.90;99.90
13561;DHT22;6852;51.686;5.314;2023-02-22T09:09:44;7.00;99.90
13561;DHT22;6852;51.686;5.314;2023-02-22T09:12:11;7.10;99.90
13561;DHT22;6852;51.686;5.314;2023-02-22T09:14:38;7.10;99.90
13561;DHT22;6852;51.686;5.314;2023-02-22T09:17:05;7.00;99.90
13561;DHT22;6852;51.686;5.314;2023-02-22T09:19:32;7.00;99.90
13561;DHT22;6852;51.686;5.314;2023-02-22T09:21:59;7.20;99.90
13561;DHT22;6852;51.686;5.314;2023-02-22T09:24:26;7.30;99.90
13561;DHT22;6852;51.686;5.314;2023-02-22T09:26:53;7.40;99.90
13561;DHT22;6852;51.686;5.314;2023-02-22T09:29:25;7.60;99.90
13561;DHT22;6852;51.686;5.314;2023-02-22T09:31:53;7.60;99.90
13561;DHT22;6852;51.686;5.314;2023-02-22T09:34:22;7.60;99.90
13561;DHT22;6852;51.686;5.314;2023-02-22T09:36:56;7.70;99.90
13561;DHT22;6852;51.686;5.314;2023-02-22T09:39:23;7.90;99.90
13561;DHT22;6852;51.686;5.314;2023-02-22T09:45:07;8.40;99.90
13561;DHT22;6852;51.686;5.314;2023-02-22T09:47:42;8.50;99.90
13561;DHT22;6852;51.686;5.314;2023-02-22T09:50:48;8.60;99.90
13561;DHT22;6852;51.686;5.314;2023-02-22T09:56:00;8.60;99.90
13561;DHT22;6852;51.686;5.314;2023-02-22T09:58:34;8.60;99.90
13561;DHT22;6852;51.686;5.314;2023-02-22T10:06:48;9.10;99.90
13561;DHT22;6852;51.686;5.314;2023-02-22T10:09:18;9.20;99.90
13561;DHT22;6852;51.686;5.314;2023-02-22T10:11:58;9.40;99.90
13561;DHT22;6852;51.686;5.314;2023-02-22T10:18:26;9.40;99.90
13561;DHT22;6852;51.686;5.314;2023-02-22T10:28:42;9.50;99.90
13561;DHT22;6852;51.686;5.314;2023-02-22T10:31:20;9.40;99.90
13561;DHT22;6852;51.686;5.314;2023-02-22T10:34:02;9.40;99.90
13561;DHT22;6852;51.686;5.314;2023-02-22T10:36:31;9.50;99.90
13561;DHT22;6852;51.686;5.314;2023-02-22T10:39:14;9.60;99.90
13561;DHT22;6852;51.686;5.314;2023-02-22T10:41:50;9.50;99.90
13561;DHT22;6852;51.686;5.314;2023-02-22T10:44:19;9.40;99.90
13561;DHT22;6852;51.686;5.314;2023-02-22T10:46:47;9.30;99.90
13561;DHT22;6852;51.686;5.314;2023-02-22T10:49:20;9.50;99.90
13561;DHT22;6852;51.686;5.314;2023-02-22T10:52:00;9.30;99.90
13561;DHT22;6852;51.686;5.314;2023-02-22T10:54:33;9.30;99.90
13561;DHT22;6852;51.686;5.314;2023-02-22T10:57:02;9.20;99.90
13561;DHT22;6852;51.686;5.314;2023-02-22T10:59:38;9.20;99.90
13561;DHT22;6852;51.686;5.314;2023-02-22T11:02:23;9.20;99.90
13561;DHT22;6852;51.686;5.314;2023-02-22T11:04:52;9.30;99.90
13561;DHT22;6852;51.686;5.314;2023-02-22T11:10:14;9.50;99.90
13561;DHT22;6852;51.686;5.314;2023-02-22T11:12:56;9.60;99.90
13561;DHT22;6852;51.686;5.314;2023-02-22T11:15:27;9.60;99.90
13561;DHT22;6852;51.686;5.314;2023-02-22T11:17:56;9.70;99.90
13561;DHT22;6852;51.686;5.314;2023-02-22T11:20:35;9.80;99.90
13561;DHT22;6852;51.686;5.314;2023-02-22T11:23:04;9.80;99.90
13561;DHT22;6852;51.686;5.314;2023-02-22T11:25:36;10.00;99.90
13561;DHT22;6852;51.686;5.314;2023-02-22T11:28:11;10.00;99.90
13561;DHT22;6852;51.686;5.314;2023-02-22T11:30:41;10.00;99.90
13561;DHT22;6852;51.686;5.314;2023-02-22T11:35:54;10.10;99.90
13561;DHT22;6852;51.686;5.314;2023-02-22T11:38:23;10.00;99.90
13561;DHT22;6852;51.686;5.314;2023-02-22T11:41:17;10.00;99.90
13561;DHT22;6852;51.686;5.314;2023-02-22T11:43:46;9.90;99.90
13561;DHT22;6852;51.686;5.314;2023-02-22T11:46:19;9.90;99.90
13561;DHT22;6852;51.686;5.314;2023-02-22T11:48:59;9.80;99.90
13561;DHT22;6852;51.686;5.314;2023-02-22T11:56:52;9.90;99.90
13561;DHT22;6852;51.686;5.314;2023-02-22T12:05:20;9.90;99.90
13561;DHT22;6852;51.686;5.314;2023-02-22T12:11:13;9.70;99.90
13561;DHT22;6852;51.686;5.314;2023-02-22T12:14:15;9.70;99.90
13561;DHT22;6852;51.686;5.314;2023-02-22T12:19:43;9.80;99.90
13561;DHT22;6852;51.686;5.314;2023-02-22T12:22:33;10.00;99.90
13561;DHT22;6852;51.686;5.314;2023-02-22T12:25:04;10.10;99.90
13561;DHT22;6852;51.686;5.314;2023-02-22T12:30:14;10.20;99.90
13561;DHT22;6852;51.686;5.314;2023-02-22T12:32:50;10.20;99.90
13561;DHT22;6852;51.686;5.314;2023-02-22T12:35:29;10.20;99.90
13561;DHT22;6852;51.686;5.314;2023-02-22T12:41:08;10.20;99.90
13561;DHT22;6852;51.686;5.314;2023-02-22T12:46:39;10.00;99.90
13561;DHT22;6852;51.686;5.314;2023-02-22T12:49:15;10.00;99.90
13561;DHT22;6852;51.686;5.314;2023-02-22T12:55:13;9.90;99.90
13561;DHT22;6852;51.686;5.314;2023-02-22T13:01:06;10.00;99.90
13561;DHT22;6852;51.686;5.314;2023-02-22T13:03:38;10.10;99.90
13561;DHT22;6852;51.686;5.314;2023-02-22T13:09:07;10.00;99.90
13561;DHT22;6852;51.686;5.314;2023-02-22T13:11:47;10.10;99.90
13561;DHT22;6852;51.686;5.314;2023-02-22T13:20:00;10.20;99.90
13561;DHT22;6852;51.686;5.314;2023-02-22T13:22:40;10.20;99.90
13561;DHT22;6852;51.686;5.314;2023-02-22T13:25:22;10.20;99.90
13561;DHT22;6852;51.686;5.314;2023-02-22T13:27:58;10.20;99.90
13561;DHT22;6852;51.686;5.314;2023-02-22T13:49:10;10.30;99.90
13561;DHT22;6852;51.686;5.314;2023-02-22T13:56:51;10.10;99.90
13561;DHT22;6852;51.686;5.314;2023-02-22T13:59:35;10.20;99.90
13561;DHT22;6852;51.686;5.314;2023-02-22T14:02:04;10.10;99.90
13561;DHT22;6852;51.686;5.314;2023-02-22T14:04:36;10.10;99.90
13561;DHT22;6852;51.686;5.314;2023-02-22T14:09:53;10.20;99.90
13561;DHT22;6852;51.686;5.314;2023-02-22T14:18:02;10.10;99.90
13561;DHT22;6852;51.686;5.314;2023-02-22T14:20:31;10.20;99.90
13561;DHT22;6852;51.686;5.314;2023-02-22T14:23:27;10.30;99.90
13561;DHT22;6852;51.686;5.314;2023-02-22T14:25:57;10.30;99.90
13561;DHT22;6852;51.686;5.314;2023-02-22T14:28:50;10.30;99.90
13561;DHT22;6852;51.686;5.314;2023-02-22T14:40:01;10.30;99.90
13561;DHT22;6852;51.686;5.314;2023-02-22T14:42:57;10.40;99.90
13561;DHT22;6852;51.686;5.314;2023-02-22T14:45:29;10.40;99.90
13561;DHT22;6852;51.686;5.314;2023-02-22T14:48:08;10.40;99.90
13561;DHT22;6852;51.686;5.314;2023-02-22T14:56:04;10.50;99.90
13561;DHT22;6852;51.686;5.314;2023-02-22T14:58:41;10.40;99.90
13561;DHT22;6852;51.686;5.314;2023-02-22T15:04:23;10.40;99.90
13561;DHT22;6852;51.686;5.314;2023-02-22T15:06:55;10.30;99.90
13561;DHT22;6852;51.686;5.314;2023-02-22T15:09:24;10.30;99.90
13561;DHT22;6852;51.686;5.314;2023-02-22T15:14:38;10.30;99.90
13561;DHT22;6852;51.686;5.314;2023-02-22T15:17:10;10.20;99.90
13561;DHT22;6852;51.686;5.314;2023-02-22T15:19:40;10.20;99.90
13561;DHT22;6852;51.686;5.314;2023-02-22T15:22:26;10.20;99.90
13561;DHT22;6852;51.686;5.314;2023-02-22T15:25:02;10.20;99.90
13561;DHT22;6852;51.686;5.314;2023-02-22T15:27:29;10.20;99.90
13561;DHT22;6852;51.686;5.314;2023-02-22T15:30:02;10.20;99.90
13561;DHT22;6852;51.686;5.314;2023-02-22T15:32:35;10.30;99.90
13561;DHT22;6852;51.686;5.314;2023-02-22T15:35:23;10.20;99.90
13561;DHT22;6852;51.686;5.314;2023-02-22T15:40:37;10.10;99.90
13561;DHT22;6852;51.686;5.314;2023-02-22T15:43:18;10.10;99.90
13561;DHT22;6852;51.686;5.314;2023-02-22T15:45:45;10.10;99.90
13561;DHT22;6852;51.686;5.314;2023-02-22T15:48:12;10.20;99.90
13561;DHT22;6852;51.686;5.314;2023-02-22T15:51:02;10.10;99.90
13561;DHT22;6852;51.686;5.314;2023-02-22T15:53:42;10.10;99.90
13561;DHT22;6852;51.686;5.314;2023-02-22T15:56:24;10.20;99.90
13561;DHT22;6852;51.686;5.314;2023-02-22T15:58:58;10.10;99.90
13561;DHT22;6852;51.686;5.314;2023-02-22T16:01:26;10.20;99.90
13561;DHT22;6852;51.686;5.314;2023-02-22T16:03:56;10.20;99.90
13561;DHT22;6852;51.686;5.314;2023-02-22T16:06:30;10.20;99.90
13561;DHT22;6852;51.686;5.314;2023-02-22T16:09:09;10.10;99.90
13561;DHT22;6852;51.686;5.314;2023-02-22T16:11:39;10.20;99.90
13561;DHT22;6852;51.686;5.314;2023-02-22T16:22:40;10.20;99.90
13561;DHT22;6852;51.686;5.314;2023-02-22T16:28:27;10.10;99.90
13561;DHT22;6852;51.686;5.314;2023-02-22T16:30:59;10.10;99.90
13561;DHT22;6852;51.686;5.314;2023-02-22T16:33:26;10.10;99.90
13561;DHT22;6852;51.686;5.314;2023-02-22T16:36:04;10.20;99.90
13561;DHT22;6852;51.686;5.314;2023-02-22T16:38:32;10.20;99.90
13561;DHT22;6852;51.686;5.314;2023-02-22T16:40:59;10.20;99.90
13561;DHT22;6852;51.686;5.314;2023-02-22T16:43:29;10.20;99.90
13561;DHT22;6852;51.686;5.314;2023-02-22T16:45:59;10.30;99.90
13561;DHT22;6852;51.686;5.314;2023-02-22T16:48:31;10.30;99.90
13561;DHT22;6852;51.686;5.314;2023-02-22T16:53:56;10.20;99.90
13561;DHT22;6852;51.686;5.314;2023-02-22T16:56:28;10.30;99.90
13561;DHT22;6852;51.686;5.314;2023-02-22T16:58:59;10.30;99.90
13561;DHT22;6852;51.686;5.314;2023-02-22T17:01:26;10.30;99.90
13561;DHT22;6852;51.686;5.314;2023-02-22T17:03:53;10.30;99.90
13561;DHT22;6852;51.686;5.314;2023-02-22T17:06:20;10.40;99.90
13561;DHT22;6852;51.686;5.314;2023-02-22T17:08:47;10.40;99.90
13561;DHT22;6852;51.686;5.314;2023-02-22T17:11:17;10.40;99.90
13561;DHT22;6852;51.686;5.314;2023-02-22T17:13:44;10.40;99.90
13561;DHT22;6852;51.686;5.314;2023-02-22T17:16:13;10.50;99.90
13561;DHT22;6852;51.686;5.314;2023-02-22T17:18:40;10.60;99.90
13561;DHT22;6852;51.686;5.314;2023-02-22T17:21:09;10.50;99.90
13561;DHT22;6852;51.686;5.314;2023-02-22T17:23:36;10.50;99.90
13561;DHT22;6852;51.686;5.314;2023-02-22T17:26:03;10.50;99.90
13561;DHT22;6852;51.686;5.314;2023-02-22T17:28:31;10.40;99.90
13561;DHT22;6852;51.686;5.314;2023-02-22T17:30:59;10.50;99.90
13561;DHT22;6852;51.686;5.314;2023-02-22T17:33:29;10.60;99.90
13561;DHT22;6852;51.686;5.314;2023-02-22T17:35:57;10.60;99.90
13561;DHT22;6852;51.686;5.314;2023-02-22T17:38:25;10.60;99.90
13561;DHT22;6852;51.686;5.314;2023-02-22T17:40:57;10.60;99.90
13561;DHT22;6852;51.686;5.314;2023-02-22T17:43:25;10.70;99.90
13561;DHT22;6852;51.686;5.314;2023-02-22T17:45:53;10.60;99.90
13561;DHT22;6852;51.686;5.314;2023-02-22T17:48:21;10.60;99.90
13561;DHT22;6852;51.686;5.314;2023-02-22T17:50:50;10.60;99.90
13561;DHT22;6852;51.686;5.314;2023-02-22T17:53:18;10.60;99.90
13561;DHT22;6852;51.686;5.314;2023-02-22T17:55:48;10.60;99.90
13561;DHT22;6852;51.686;5.314;2023-02-22T17:58:16;10.50;99.90
13561;DHT22;6852;51.686;5.314;2023-02-22T18:00:48;10.50;99.90
13561;DHT22;6852;51.686;5.314;2023-02-22T18:03:18;10.40;99.90
13561;DHT22;6852;51.686;5.314;2023-02-22T18:05:49;10.30;99.90
13561;DHT22;6852;51.686;5.314;2023-02-22T18:08:17;10.40;99.90
13561;DHT22;6852;51.686;5.314;2023-02-22T18:10:44;10.30;99.90
13561;DHT22;6852;51.686;5.314;2023-02-22T18:13:13;10.20;99.90
13561;DHT22;6852;51.686;5.314;2023-02-22T18:15:42;10.20;99.90
13561;DHT22;6852;51.686;5.314;2023-02-22T18:18:09;10.20;99.90
13561;DHT22;6852;51.686;5.314;2023-02-22T18:20:40;10.20;99.90
13561;DHT22;6852;51.686;5.314;2023-02-22T18:23:14;10.30;99.90
13561;DHT22;6852;51.686;5.314;2023-02-22T18:25:46;10.30;99.90
13561;DHT22;6852;51.686;5.314;2023-02-22T18:28:34;10.30;99.90
13561;DHT22;6852;51.686;5.314;2023-02-22T18:31:08;10.10;99.90
13561;DHT22;6852;51.686;5.314;2023-02-22T18:33:35;10.00;99.90
13561;DHT22;6852;51.686;5.314;2023-02-22T18:36:03;10.00;99.90
13561;DHT22;6852;51.686;5.314;2023-02-22T18:38:30;9.90;99.90
13561;DHT22;6852;51.686;5.314;2023-02-22T18:41:02;10.00;99.90
13561;DHT22;6852;51.686;5.314;2023-02-22T18:43:29;10.00;99.90
13561;DHT22;6852;51.686;5.314;2023-02-22T18:46:10;9.90;99.90
13561;DHT22;6852;51.686;5.314;2023-02-22T18:48:38;9.80;99.90
13561;DHT22;6852;51.686;5.314;2023-02-22T18:51:07;9.90;99.90
13561;DHT22;6852;51.686;5.314;2023-02-22T18:53:39;9.90;99.90
13561;DHT22;6852;51.686;5.314;2023-02-22T18:56:08;9.90;99.90
13561;DHT22;6852;51.686;5.314;2023-02-22T18:58:35;9.80;99.90